Time;durP1;ratioP1;P1;durP2;ratioP2;P2;SDS_P1;SDS_P2;PMS_P1;PMS_P2;Temp;Humidity;BMP_temperature;BMP_pressure;BME280_temperature;BME280_humidity;BME280_pressure;Samples;Min_cycle;Max_cycle;Signal;HPM_P1;HPM_P2
2021/04/01 00:01:36;;;;;;;5.83;5.43;;;8.70;97.60;;;9.66;59.42;98256.78;5259337;28;20199;-82
2021/04/01 00:04:09;;;;;;;7.17;5.87;;;8.70;97.80;;;9.64;60.52;98257.47;5255887;28;20200;-82
2021/04/01 00:06:42;;;;;;;5.50;5.00;;;8.70;97.70;;;9.65;60.41;98256.69;5249805;28;20196;-84
2021/04/01 00:09:14;;;;;;;5.73;5.30;;;8.70;97.90;;;9.66;59.85;98263.56;5265362;28;20200;-82
2021/04/01 00:11:47;;;;;;;5.57;5.07;;;8.60;97.70;;;9.64;60.00;98253.28;5251694;28;20365;-82
2021/04/01 00:14:20;;;;;;;5.30;4.80;;;8.60;98.10;;;9.67;59.89;98252.56;5254546;28;20197;-81
2021/04/01 00:16:53;;;;;;;5.60;5.10;;;8.60;97.80;;;9.60;59.82;98253.81;5258911;28;20237;-83
2021/04/01 00:19:26;;;;;;;5.83;5.23;;;8.60;97.70;;;9.48;60.45;98251.34;5271569;28;20555;-85
2021/04/01 00:21:58;;;;;;;5.77;5.37;;;8.50;97.90;;;9.48;60.52;98250.47;5253188;28;20660;-84
2021/04/01 00:24:30;;;;;;;5.63;5.17;;;8.50;98.00;;;9.51;59.83;98248.13;5264126;28;20204;-81
2021/04/01 00:27:07;;;;;;;5.47;4.97;;;8.50;98.00;;;9.42;60.83;98248.38;5260203;28;20306;-82
2021/04/01 00:29:39;;;;;;;6.10;4.70;;;8.40;98.20;;;9.41;61.04;98246.63;5256126;28;20211;-83
2021/04/01 00:32:13;;;;;;;6.70;4.90;;;8.40;98.50;;;9.39;60.42;98245.63;5255839;28;20588;-83
2021/04/01 00:34:46;;;;;;;5.80;5.30;;;8.40;98.40;;;9.34;61.10;98251.19;5269003;28;20201;-82
2021/04/01 00:37:18;;;;;;;5.57;5.07;;;8.30;98.60;;;9.37;61.06;98241.19;5249835;28;20217;-84
2021/04/01 00:39:50;;;;;;;5.67;4.97;;;8.30;98.70;;;9.28;61.51;98244.00;5250118;28;20215;-84
2021/04/01 00:42:22;;;;;;;5.40;4.90;;;8.20;98.70;;;9.24;60.73;98242.00;5250611;28;20197;-83
2021/04/01 00:45:00;;;;;;;5.73;5.30;;;8.20;98.90;;;9.23;61.68;98238.59;5250447;28;20266;-84
2021/04/01 00:47:37;;;;;;;5.80;4.93;;;8.10;99.20;;;9.20;60.67;98238.38;5261137;28;20251;-84
2021/04/01 00:50:14;;;;;;;5.20;4.70;;;8.10;99.10;;;9.17;61.95;98238.16;5269072;28;20196;-83
2021/04/01 00:52:46;;;;;;;6.07;4.87;;;8.10;99.00;;;9.12;61.43;98233.53;5269526;28;20261;-82
2021/04/01 00:55:19;;;;;;;5.43;4.93;;;7.90;99.00;;;9.05;61.11;98231.34;5266355;28;20196;-82
2021/04/01 00:57:54;;;;;;;5.80;5.40;;;7.80;98.80;;;8.87;60.79;98236.97;5267286;28;20224;-82
2021/04/01 01:00:29;;;;;;;4.63;4.23;;;7.80;98.80;;;8.76;61.92;98232.78;5267940;28;20191;-83
2021/04/01 01:03:02;;;;;;;5.33;4.77;;;7.80;99.30;;;8.84;61.42;98230.72;5254841;28;20210;-83
2021/04/01 01:05:36;;;;;;;5.37;4.87;;;7.80;99.00;;;8.82;62.33;98238.28;5252567;28;20199;-83
2021/04/01 01:08:08;;;;;;;5.90;5.30;;;7.80;99.50;;;8.76;61.98;98233.66;5262720;28;20281;-81
2021/04/01 01:10:40;;;;;;;5.40;4.97;;;7.80;99.50;;;8.76;62.47;98232.78;5258594;28;20196;-81
2021/04/01 01:13:12;;;;;;;6.27;5.33;;;7.70;99.70;;;8.65;62.19;98229.47;5253581;28;20757;-81
2021/04/01 01:15:44;;;;;;;5.70;5.20;;;7.60;99.70;;;8.59;61.95;98229.03;5253392;28;20207;-82
2021/04/01 01:18:16;;;;;;;5.63;5.20;;;7.50;99.90;;;8.57;62.60;98226.38;5263124;28;20323;-83
2021/04/01 01:20:49;;;;;;;5.83;5.43;;;7.60;99.70;;;8.59;62.36;98228.16;5265737;28;20200;-82
2021/04/01 01:23:26;;;;;;;5.67;5.17;;;7.60;99.70;;;8.57;62.77;98221.28;5261062;28;20559;-82
2021/04/01 01:26:00;;;;;;;5.30;4.90;;;7.60;99.80;;;8.55;63.21;98217.72;5260314;28;20633;-84
2021/04/01 01:28:32;;;;;;;6.63;5.60;;;7.70;99.50;;;8.74;62.99;98216.47;5262719;28;20307;-84
2021/04/01 01:31:04;;;;;;;6.67;6.07;;;7.70;99.80;;;8.73;63.17;98213.06;5264721;28;20313;-83
2021/04/01 01:33:40;;;;;;;5.40;4.93;;;7.80;99.90;;;8.76;62.88;98214.94;5250808;28;20641;-83
2021/04/01 01:36:14;;;;;;;5.93;5.43;;;7.80;99.90;;;8.77;62.67;98212.47;5259992;28;20203;-84
2021/04/01 01:38:46;;;;;;;5.30;4.90;;;7.80;99.90;;;8.86;62.46;98209.69;5259306;28;20752;-83
2021/04/01 01:41:19;;;;;;;5.60;5.10;;;7.80;99.90;;;8.78;62.72;98208.25;5267453;28;20313;-82
2021/04/01 01:43:55;;;;;;;6.10;5.50;;;7.80;99.90;;;8.72;62.52;98203.63;5253378;28;20290;-81
2021/04/01 01:46:27;;;;;;;6.20;5.53;;;7.80;99.90;;;8.71;62.62;98199.31;5249402;28;20239;-84
2021/04/01 01:49:00;;;;;;;6.20;5.80;;;7.80;99.90;;;8.62;62.75;98202.91;5268270;28;20215;-85
2021/04/01 01:51:33;;;;;;;6.30;5.70;;;7.70;99.90;;;8.63;63.06;98202.97;5254933;28;20303;-84
2021/04/01 01:54:06;;;;;;;6.50;5.07;;;7.70;99.90;;;8.70;63.13;98209.38;5254358;28;20224;-83
2021/04/01 01:56:39;;;;;;;5.50;5.00;;;7.70;99.90;;;8.67;63.35;98198.97;5249310;28;20659;-85
2021/04/01 01:59:11;;;;;;;5.67;5.17;;;7.60;99.90;;;8.68;63.57;98194.00;5264002;28;20668;-82
2021/04/01 02:01:43;;;;;;;5.80;5.30;;;7.60;99.90;;;8.68;63.59;98200.78;5248480;28;20287;-83
2021/04/01 02:04:16;;;;;;;6.63;6.00;;;7.60;99.90;;;8.68;63.12;98194.00;5266747;28;20245;-82
2021/04/01 02:06:48;;;;;;;5.63;5.13;;;7.50;99.90;;;8.63;63.37;98195.34;5267834;28;20199;-83
2021/04/01 02:09:20;;;;;;;5.43;4.93;;;7.50;99.90;;;8.55;63.14;98197.34;5249642;28;20204;-82
2021/04/01 02:11:53;;;;;;;5.77;5.17;;;7.40;99.90;;;8.52;63.31;98186.94;5267680;28;20286;-82
2021/04/01 02:14:25;;;;;;;5.60;5.10;;;7.50;99.90;;;8.51;63.36;98190.28;5252435;28;20430;-82
2021/04/01 02:16:57;;;;;;;5.60;4.90;;;7.40;99.90;;;8.41;63.49;98187.84;5248290;28;20256;-82
2021/04/01 02:19:30;;;;;;;6.00;5.40;;;7.40;99.90;;;8.37;63.73;98195.16;5248579;28;20427;-82
2021/04/01 02:22:02;;;;;;;5.10;4.70;;;7.30;99.90;;;8.31;63.57;98176.09;5265405;28;20554;-82
2021/04/01 02:24:34;;;;;;;5.57;5.10;;;7.30;99.90;;;8.29;63.84;98171.66;5257233;28;20276;-83
2021/04/01 02:27:08;;;;;;;6.47;5.87;;;7.30;99.90;;;8.28;64.69;98175.00;5267533;28;20231;-83
2021/04/01 02:29:40;;;;;;;6.17;5.67;;;7.30;99.90;;;8.27;64.86;98173.22;5249169;28;20287;-82
2021/04/01 02:32:12;;;;;;;6.23;5.63;;;7.30;99.90;;;8.28;64.66;98180.09;5248077;28;20281;-82
2021/04/01 02:34:44;;;;;;;6.30;5.80;;;7.30;99.90;;;8.32;64.67;98175.31;5248236;28;20303;-83
2021/04/01 02:37:17;;;;;;;5.73;5.20;;;7.30;99.90;;;8.33;63.94;98166.91;5249088;28;20227;-83
2021/04/01 02:39:49;;;;;;;5.83;5.33;;;7.30;99.90;;;8.30;64.14;98169.25;5247912;28;20189;-83
2021/04/01 02:42:22;;;;;;;5.50;5.03;;;7.30;99.90;;;8.26;64.50;98166.38;5253599;28;20579;-84
2021/04/01 02:44:54;;;;;;;5.60;5.10;;;7.20;99.90;;;8.25;64.67;98169.69;5256700;28;20200;-83
2021/04/01 02:47:27;;;;;;;7.13;5.20;;;7.10;99.90;;;8.15;63.85;98172.34;5248094;28;20295;-83
2021/04/01 02:49:59;;;;;;;6.33;5.47;;;7.10;99.90;;;8.09;64.57;98175.34;5248657;28;20208;-82
2021/04/01 02:52:31;;;;;;;5.03;4.57;;;7.00;99.90;;;8.15;64.91;98167.25;5252401;28;20311;-82
2021/04/01 02:55:05;;;;;;;5.90;5.23;;;7.10;99.90;;;8.13;64.92;98173.13;5265795;28;20277;-83
2021/04/01 02:57:39;;;;;;;5.80;5.33;;;7.10;99.90;;;8.13;65.03;98170.59;5255848;28;20302;-83
2021/04/01 03:00:17;;;;;;;5.67;5.03;;;7.00;99.90;;;8.08;64.99;98171.91;5255555;28;20224;-85
2021/04/01 03:02:52;;;;;;;5.90;5.40;;;7.00;99.90;;;8.07;65.25;98180.34;5269993;28;20636;-84
2021/04/01 03:05:24;;;;;;;5.93;5.33;;;7.00;99.90;;;8.08;65.69;98171.03;5267689;28;20295;-84
2021/04/01 03:07:57;;;;;;;6.30;5.70;;;7.00;99.90;;;8.09;65.58;98171.13;5250465;28;20280;-84
2021/04/01 03:10:29;;;;;;;5.83;5.33;;;6.90;99.90;;;7.93;65.86;98168.28;5250271;28;20576;-83
2021/04/01 03:13:02;;;;;;;6.17;5.67;;;6.90;99.90;;;7.92;65.91;98170.72;5255046;28;20259;-83
2021/04/01 03:15:34;;;;;;;6.37;5.77;;;6.90;99.90;;;7.93;66.01;98175.91;5254191;28;20288;-84
2021/04/01 03:18:06;;;;;;;5.80;5.30;;;6.90;99.90;;;7.94;65.88;98177.69;5257454;28;20671;-83
2021/04/01 03:20:39;;;;;;;5.80;5.10;;;6.90;99.90;;;7.88;65.91;98164.53;5264603;28;20660;-83
2021/04/01 03:23:11;;;;;;;5.70;5.13;;;6.90;99.90;;;7.90;66.03;98165.53;5254693;28;20718;-83
2021/04/01 03:25:45;;;;;;;6.13;5.63;;;6.90;99.90;;;7.86;65.65;98164.38;5265681;28;20296;-82
2021/04/01 03:28:18;;;;;;;6.40;5.87;;;6.80;99.90;;;7.77;65.93;98165.41;5262596;28;20304;-84
2021/04/01 03:30:55;;;;;;;6.17;5.60;;;6.70;99.90;;;7.58;66.48;98176.78;5249690;28;20193;-83
2021/04/01 03:33:28;;;;;;;6.57;5.77;;;6.60;99.90;;;7.59;66.51;98173.47;5254607;28;20298;-82
2021/04/01 03:36:01;;;;;;;6.43;5.20;;;6.60;99.90;;;7.60;66.84;98182.84;5268783;28;20292;-82
2021/04/01 03:38:33;;;;;;;6.13;5.30;;;6.60;99.90;;;7.64;66.78;98173.78;5261394;28;20215;-82
2021/04/01 03:41:05;;;;;;;6.87;6.23;;;6.60;99.90;;;7.64;66.75;98181.41;5254893;28;20287;-82
2021/04/01 03:43:39;;;;;;;6.60;6.07;;;6.60;99.90;;;7.51;67.12;98181.31;5257727;28;20739;-82
2021/04/01 03:46:12;;;;;;;6.10;5.50;;;6.50;99.90;;;7.49;67.26;98176.09;5270847;28;20199;-82
2021/04/01 03:48:45;;;;;;;6.93;6.23;;;6.40;99.90;;;7.50;67.37;98182.06;5262861;28;20215;-82
2021/04/01 03:51:17;;;;;;;6.37;5.77;;;6.50;99.90;;;7.53;67.16;98175.56;5249751;28;20295;-81
2021/04/01 03:53:49;;;;;;;6.77;5.80;;;6.50;99.90;;;7.50;67.10;98179.50;5251303;28;20227;-85
2021/04/01 03:56:21;;;;;;;7.17;6.47;;;6.50;99.90;;;7.40;67.72;98180.50;5268639;28;20235;-83
2021/04/01 03:58:58;;;;;;;7.37;6.67;;;6.40;99.90;;;7.38;68.33;98171.84;5261347;28;20327;-82
2021/04/01 04:13:02;;;;;;;6.80;6.20;;;6.50;99.90;;;7.44;67.64;98182.50;5250333;28;20217;-82
2021/04/01 04:15:35;;;;;;;6.63;6.13;;;6.40;99.90;;;7.42;67.85;98189.13;5249155;28;20206;-83
2021/04/01 04:18:07;;;;;;;6.50;5.87;;;6.40;99.90;;;7.50;67.81;98182.97;5248924;28;20228;-81
2021/04/01 04:20:40;;;;;;;6.43;5.83;;;6.40;99.90;;;7.41;68.06;98183.16;5264171;28;20287;-81
2021/04/01 04:23:14;;;;;;;6.40;5.90;;;6.40;99.90;;;7.42;68.21;98184.06;5269790;28;20196;-81
2021/04/01 04:25:46;;;;;;;6.17;5.47;;;6.40;99.90;;;7.37;67.97;98186.22;5251550;28;20287;-82
2021/04/01 04:28:24;;;;;;;6.67;5.50;;;6.40;99.90;;;7.34;68.33;98177.50;5254319;28;20223;-82
2021/04/01 04:30:57;;;;;;;9.80;7.07;;;6.30;99.90;;;7.24;68.62;98178.50;5248516;28;20564;-82
2021/04/01 04:33:30;;;;;;;7.67;6.87;;;6.30;99.90;;;7.26;69.48;98183.66;5249254;28;20317;-82
2021/04/01 04:36:02;;;;;;;7.73;7.13;;;6.30;99.90;;;7.22;69.37;98180.03;5269066;28;20291;-84
2021/04/01 04:38:35;;;;;;;7.87;6.53;;;6.30;99.90;;;7.25;69.17;98179.38;5268904;28;20315;-81
2021/04/01 04:41:07;;;;;;;6.87;6.20;;;6.30;99.90;;;7.20;68.90;98179.88;5252672;28;20291;-82
2021/04/01 04:43:40;;;;;;;6.23;5.63;;;6.30;99.90;;;7.31;68.77;98187.44;5256596;28;20200;-81
2021/04/01 04:46:13;;;;;;;6.77;6.27;;;6.30;99.90;;;7.26;69.05;98182.00;5247929;28;20197;-82
2021/04/01 04:48:45;;;;;;;7.70;6.93;;;6.30;99.90;;;7.26;68.66;98186.22;5251045;28;20304;-82
2021/04/01 04:51:17;;;;;;;7.73;6.83;;;6.30;99.90;;;7.28;69.32;98182.13;5260685;28;20301;-82
2021/04/01 04:53:51;;;;;;;8.13;7.30;;;6.40;99.90;;;7.34;68.80;98187.69;5266489;28;20339;-81
2021/04/01 04:56:24;;;;;;;8.37;7.57;;;6.40;99.90;;;7.28;69.33;98185.56;5249497;28;20196;-82
2021/04/01 04:59:01;;;;;;;8.50;7.73;;;6.50;99.90;;;7.32;69.56;98186.66;5262870;28;20320;-82
2021/04/01 05:04:43;;;;;;;8.53;7.60;;;6.50;99.90;;;7.30;70.18;98186.56;5257181;28;20318;-81
2021/04/01 05:07:15;;;;;;;8.37;7.47;;;6.50;99.90;;;7.40;69.27;98190.66;5252493;28;20774;-82
2021/04/01 05:09:47;;;;;;;8.10;7.30;;;6.50;99.90;;;7.39;69.53;98183.81;5261727;28;20202;-82
2021/04/01 05:12:19;;;;;;;8.30;7.47;;;6.60;99.90;;;7.43;69.46;98188.34;5253867;28;20291;-78
2021/04/01 05:14:51;;;;;;;7.00;6.40;;;6.50;99.90;;;7.53;68.81;98188.28;5261079;28;20300;-80
2021/04/01 05:17:24;;;;;;;7.33;6.63;;;6.60;99.90;;;7.57;69.08;98194.47;5260987;28;20314;-83
2021/04/01 05:20:00;;;;;;;7.13;6.43;;;6.50;99.90;;;7.51;68.76;98199.97;5263445;28;20624;-81
2021/04/01 05:22:37;;;;;;;7.03;5.87;;;6.50;99.90;;;7.51;69.00;98197.44;5256238;28;20196;-80
2021/04/01 05:25:13;;;;;;;7.37;6.47;;;6.40;99.90;;;7.51;68.30;98197.44;5254569;28;20287;-82
2021/04/01 05:27:48;;;;;;;8.07;5.70;;;6.50;99.90;;;7.55;68.62;98201.97;5256494;28;20277;-84
2021/04/01 05:30:22;;;;;;;6.53;5.90;;;6.50;99.90;;;7.58;68.75;98201.31;5262204;28;20233;-81
2021/04/01 05:32:55;;;;;;;6.53;5.97;;;6.50;99.90;;;7.55;68.42;98201.09;5260619;28;20316;-80
2021/04/01 05:35:27;;;;;;;8.70;6.57;;;6.50;99.90;;;7.66;68.33;98208.72;5256351;28;20642;-80
2021/04/01 05:37:59;;;;;;;7.13;6.63;;;6.60;99.90;;;7.78;68.11;98205.31;5259788;28;20588;-80
2021/04/01 05:40:32;;;;;;;7.90;6.03;;;6.70;99.90;;;7.88;67.84;98203.56;5263405;28;20270;-80
2021/04/01 05:43:07;;;;;;;6.77;6.17;;;6.80;99.90;;;7.87;68.31;98214.53;5264782;28;20193;-80
2021/04/01 05:45:45;;;;;;;6.90;6.33;;;6.70;99.90;;;8.02;67.00;98209.66;5261397;28;20199;-80
2021/04/01 05:48:26;;;;;;;6.97;6.33;;;6.80;99.90;;;8.07;66.89;98213.44;5257242;28;20318;-81
2021/04/01 05:57:12;;;;;;;7.43;6.83;;;7.00;99.90;;;8.26;67.26;98223.25;5249706;28;20197;-77
2021/04/01 06:00:17;;;;;;;6.97;6.37;;;7.10;99.90;;;8.74;65.94;98213.94;5269029;28;20288;-78
2021/04/01 06:03:16;;;;;;;8.33;7.13;;;7.40;99.90;;;9.24;64.96;98214.88;5257145;28;20295;-77
2021/04/01 06:05:51;;;;;;;7.97;7.10;;;7.80;99.90;;;9.69;62.79;98212.72;5251243;28;20238;-78
2021/04/01 06:08:29;;;;;;;8.37;7.57;;;8.20;99.90;;;9.99;61.54;98213.84;5252071;28;20306;-82
2021/04/01 06:11:02;;;;;;;8.03;7.20;;;8.40;99.90;;;10.28;60.48;98215.75;5253475;28;20303;-82
2021/04/01 06:13:48;;;;;;;7.87;7.17;;;8.70;99.90;;;10.35;60.09;98212.78;5260470;28;20502;-83
2021/04/01 06:16:20;;;;;;;9.47;8.57;;;8.90;99.90;;;10.32;59.90;98217.72;5252129;28;20763;-82
2021/04/01 06:18:55;;;;;;;8.57;7.77;;;8.90;99.90;;;10.42;60.14;98218.31;5259902;28;20220;-81
2021/04/01 06:21:30;;;;;;;7.57;6.87;;;9.10;99.90;;;10.38;60.44;98212.97;5265420;28;20206;-83
2021/04/01 06:24:22;;;;;;;8.33;7.60;;;9.00;99.90;;;10.57;60.23;98214.16;5263125;28;20233;-81
2021/04/01 06:27:02;;;;;;;8.40;7.60;;;9.30;99.90;;;10.78;59.72;98205.25;5256081;28;20288;-82
2021/04/01 06:29:40;;;;;;;9.13;8.23;;;9.30;99.90;;;11.30;58.54;98211.75;5263334;28;20203;-81
2021/04/01 06:32:19;;;;;;;9.13;8.17;;;9.60;99.90;;;11.82;56.18;98214.84;5266179;28;20246;-81
2021/04/01 06:34:52;;;;;;;9.97;8.23;;;9.90;99.90;;;12.02;56.04;98198.97;5264987;28;20199;-82
2021/04/01 06:37:36;;;;;;;8.80;7.60;;;10.20;99.40;;;12.49;54.58;98198.16;5246805;28;20239;-81
2021/04/01 06:40:10;;;;;;;9.23;7.23;;;10.60;98.80;;;12.79;54.08;98198.97;5258142;28;20231;-82
2021/04/01 06:42:48;;;;;;;8.27;7.47;;;10.70;98.80;;;13.18;52.53;98199.28;5254987;28;20283;-81
2021/04/01 06:45:24;;;;;;;7.90;7.17;;;11.20;97.80;;;13.45;52.62;98201.56;5252941;28;20290;-82
2021/04/01 06:47:58;;;;;;;8.20;7.28;;;11.40;97.80;;;13.90;51.28;98202.09;5247346;28;20307;-82
2021/04/01 06:50:34;;;;;;;9.57;7.47;;;11.80;97.20;;;14.11;50.96;98194.59;5254844;28;20540;-83
2021/04/01 06:53:16;;;;;;;9.23;7.50;;;12.20;96.30;;;14.60;49.28;98199.53;5255861;28;20216;-85
2021/04/01 06:56:16;;;;;;;8.93;7.57;;;12.50;95.70;;;14.90;47.83;98196.59;5252635;28;20203;-82
2021/04/01 06:59:20;;;;;;;8.70;7.35;;;12.60;95.00;;;15.12;47.09;98191.59;5254543;28;20294;-81
2021/04/01 07:02:17;;;;;;;8.15;7.35;;;12.70;94.90;;;15.48;46.44;98199.16;5266354;28;20228;-80
2021/04/01 07:04:56;;;;;;;8.88;7.38;;;12.70;94.70;;;15.57;46.34;98196.09;5249363;28;20278;-81
2021/04/01 07:07:29;;;;;;;7.72;6.43;;;12.90;94.60;;;16.09;46.09;98196.63;5250948;28;20239;-78
2021/04/01 07:10:14;;;;;;;9.27;6.72;;;13.30;94.40;;;16.61;44.80;98192.66;5248669;28;20311;-80
2021/04/01 07:12:48;;;;;;;7.18;6.35;;;13.60;94.30;;;16.75;44.40;98186.31;5252580;28;20218;-80
2021/04/01 07:15:23;;;;;;;7.60;6.78;;;13.60;94.20;;;17.17;43.35;98190.44;5257346;28;20303;-82
2021/04/01 07:18:12;;;;;;;7.72;6.97;;;13.90;93.60;;;17.43;42.63;98191.41;5265779;28;20606;-82
2021/04/01 07:20:55;;;;;;;7.50;6.80;;;14.20;93.00;;;17.51;42.62;98187.38;5261252;28;20215;-80
2021/04/01 07:23:49;;;;;;;7.95;6.78;;;14.70;92.40;;;17.59;43.00;98187.63;5254002;28;20192;-85
2021/04/01 07:46:51;;;;;;;7.55;6.72;;;16.60;90.80;;;18.34;44.01;98162.59;5227203;28;20675;-83
2021/04/01 07:49:27;;;;;;;8.93;6.30;;;16.90;90.60;;;18.52;43.69;98161.41;5248110;28;20214;-83
2021/04/01 07:52:06;;;;;;;7.32;6.57;;;17.10;90.50;;;18.72;43.01;98160.28;5257781;28;20211;-83
2021/04/01 07:54:54;;;;;;;7.35;6.65;;;17.50;89.60;;;18.87;42.64;98168.53;5256324;28;20230;-82
2021/04/01 08:00:32;;;;;;;8.70;6.70;;;17.80;87.90;;;19.24;42.07;98173.91;5259860;28;20280;-82
2021/04/01 08:03:21;;;;;;;7.18;6.47;;;17.80;87.70;;;19.38;41.62;98175.16;5269813;28;20283;-83
2021/04/01 08:05:54;;;;;;;8.98;7.18;;;17.90;87.80;;;19.56;41.46;98169.59;5264509;28;20196;-82
2021/04/01 08:08:27;;;;;;;8.15;7.30;;;18.20;87.00;;;19.84;39.92;98168.63;5268725;28;20302;-83
2021/04/01 08:11:04;;;;;;;7.45;6.47;;;18.60;84.60;;;19.94;39.91;98168.00;5264784;28;20203;-83
2021/04/01 08:13:38;;;;;;;9.35;6.72;;;18.70;84.60;;;20.07;39.49;98161.41;5256401;28;20316;-83
2021/04/01 08:16:17;;;;;;;7.07;6.20;;;18.80;83.80;;;20.18;38.91;98159.94;5262285;28;20203;-82
2021/04/01 08:18:52;;;;;;;7.80;6.47;;;18.90;82.70;;;20.39;38.95;98159.56;5259178;28;20298;-83
2021/04/01 08:21:27;;;;;;;7.82;6.03;;;19.20;82.10;;;20.55;38.02;98155.66;5250294;28;20673;-83
2021/04/01 08:24:22;;;;;;;8.63;6.45;;;19.50;80.10;;;20.75;37.49;98152.63;5253899;28;20201;-83
2021/04/01 08:27:23;;;;;;;8.07;6.47;;;19.70;79.50;;;20.83;36.70;98156.22;5255568;28;20239;-84
2021/04/01 08:33:35;;;;;;;6.82;6.13;;;19.90;77.20;;;21.22;35.97;98155.31;5243430;28;20235;-84
2021/04/01 08:36:28;;;;;;;9.07;6.55;;;20.10;76.50;;;21.41;35.79;98153.97;5261433;28;20660;-83
2021/04/01 08:39:22;;;;;;;9.07;6.40;;;20.30;76.70;;;21.71;35.26;98145.84;5259763;28;20199;-84
2021/04/01 08:42:46;;;;;;;7.55;6.03;;;20.50;75.40;;;21.86;34.97;98146.09;5254056;28;20204;-83
2021/04/01 08:45:58;;;;;;;7.00;5.65;;;20.80;74.60;;;22.09;34.51;98140.38;5255545;28;20559;-83
2021/04/01 08:49:02;;;;;;;8.43;5.80;;;20.80;74.10;;;22.11;34.36;98136.09;5254274;28;20211;-83
2021/04/01 08:52:21;;;;;;;7.15;6.07;;;20.70;74.20;;;22.08;34.60;98147.34;5232833;28;20654;-86
2021/04/01 08:55:04;;;;;;;6.53;5.38;;;20.80;74.70;;;22.17;34.38;98141.38;5250753;28;20212;-82
2021/04/01 08:57:54;;;;;;;6.68;5.82;;;20.90;73.90;;;22.35;34.28;98141.72;5259919;28;20222;-82
2021/04/01 09:00:30;;;;;;;7.10;5.88;;;21.10;74.00;;;22.46;34.20;98139.25;5247335;28;20201;-83
2021/04/01 09:03:03;;;;;;;7.45;5.72;;;21.40;73.00;;;22.59;33.85;98135.09;5247438;28;20196;-83
2021/04/01 09:05:36;;;;;;;5.78;5.25;;;21.50;72.70;;;22.77;34.06;98135.34;5260156;28;20291;-84
2021/04/01 09:08:09;;;;;;;8.82;5.85;;;21.70;73.00;;;22.89;33.76;98134.63;5255363;28;20310;-83
2021/04/01 09:10:53;;;;;;;5.95;5.35;;;21.90;72.80;;;23.10;33.54;98126.25;5259780;28;20283;-82
2021/04/01 09:13:30;;;;;;;9.27;5.50;;;22.10;71.90;;;23.38;32.89;98125.69;5262453;28;20700;-82
2021/04/01 09:16:18;;;;;;;5.30;4.80;;;22.40;71.40;;;23.64;32.45;98132.91;5247472;28;20231;-81
2021/04/01 09:18:50;;;;;;;7.85;5.07;;;22.70;69.50;;;23.80;32.17;98129.59;5261965;28;20216;-81
2021/04/01 09:21:32;;;;;;;6.72;5.22;;;23.00;69.60;;;23.99;31.45;98129.75;5262899;28;20224;-81
2021/04/01 09:24:10;;;;;;;6.47;4.82;;;22.90;68.40;;;24.10;31.06;98122.88;5254178;28;20262;-81
2021/04/01 09:26:48;;;;;;;7.63;5.30;;;23.10;67.00;;;24.05;31.53;98114.13;5250708;28;20796;-84
2021/04/01 09:29:20;;;;;;;7.05;4.97;;;23.00;68.30;;;24.01;30.91;98113.25;5266537;28;20195;-82
2021/04/01 09:31:56;;;;;;;5.75;4.85;;;22.80;68.00;;;24.10;31.05;98111.56;5257234;28;20283;-81
2021/04/01 09:34:31;;;;;;;5.72;4.47;;;22.90;67.40;;;24.01;31.71;98112.38;5247953;28;20697;-81
2021/04/01 09:37:14;;;;;;;6.65;4.25;;;22.90;68.30;;;24.19;31.57;98102.03;5248341;28;20250;-80
2021/04/01 09:39:47;;;;;;;7.45;5.05;;;23.00;68.30;;;24.10;31.19;98119.41;5248279;28;20200;-80
2021/04/01 09:42:19;;;;;;;6.20;5.10;;;23.00;67.90;;;23.94;31.68;98110.56;5255771;28;20283;-80
2021/04/01 09:44:54;;;;;;;5.80;4.50;;;22.80;68.70;;;23.95;31.79;98107.06;5261528;28;20252;-80
2021/04/01 09:47:32;;;;;;;8.38;5.07;;;22.70;69.10;;;23.99;31.88;98109.72;5260906;28;20251;-82
2021/04/01 09:50:08;;;;;;;5.75;4.35;;;22.70;69.00;;;24.00;31.86;98097.53;5250578;28;20569;-81
2021/04/01 09:52:42;;;;;;;4.85;4.07;;;22.60;69.90;;;23.94;32.44;98100.13;5258025;28;20298;-81
2021/04/01 09:55:15;;;;;;;5.78;4.07;;;22.60;69.90;;;24.03;31.63;98100.16;5257234;28;20612;-81
2021/04/01 09:57:50;;;;;;;7.20;4.43;;;22.70;69.00;;;24.10;32.02;98107.22;5250299;28;20921;-81
2021/04/01 10:00:31;;;;;;;5.88;4.30;;;22.80;68.90;;;24.20;33.25;98103.78;5263129;28;20685;-83
2021/04/01 10:03:29;;;;;;;5.35;3.60;;;23.00;70.90;;;24.42;32.70;98099.56;5268748;28;20632;-83
2021/04/01 10:06:01;;;;;;;5.97;4.38;;;23.40;69.40;;;24.43;32.07;98100.47;5262186;28;20290;-84
2021/04/01 10:08:36;;;;;;;5.38;4.10;;;23.50;69.10;;;24.62;31.25;98091.88;5254275;28;20248;-84
2021/04/01 10:11:24;;;;;;;4.35;3.95;;;23.40;67.70;;;24.56;31.43;98093.59;5264823;28;20213;-84
2021/04/01 10:14:06;;;;;;;5.90;4.60;;;23.40;67.80;;;24.43;31.89;98080.44;5269645;28;20748;-84
2021/04/01 10:16:51;;;;;;;5.97;4.07;;;23.40;67.70;;;24.49;31.31;98080.50;5248637;28;20257;-85
2021/04/01 10:19:28;;;;;;;4.70;4.30;;;23.40;68.00;;;24.55;31.41;98079.63;5262472;28;20275;-84
2021/04/01 10:22:01;;;;;;;5.57;4.85;;;23.50;67.60;;;24.49;31.01;98069.13;5258613;28;20191;-84
2021/04/01 10:24:37;;;;;;;7.18;4.47;;;23.30;67.20;;;24.40;31.70;98077.78;5255483;28;20192;-84
2021/04/01 10:27:24;;;;;;;7.47;4.68;;;23.30;67.30;;;24.37;32.08;98080.38;5252448;28;20301;-85
2021/04/01 10:29:59;;;;;;;5.03;4.43;;;23.30;68.10;;;24.49;31.20;98074.38;5249486;28;20279;-85
2021/04/01 10:32:40;;;;;;;4.97;4.05;;;23.40;67.40;;;24.56;31.66;98070.94;5256179;28;20366;-83
2021/04/01 10:35:16;;;;;;;5.43;4.07;;;23.40;68.10;;;24.57;31.94;98062.22;5264171;28;20695;-83
2021/04/01 10:37:51;;;;;;;5.22;4.00;;;23.40;67.80;;;24.56;31.66;98059.63;5264776;28;20219;-82
2021/04/01 10:40:26;;;;;;;7.65;4.63;;;23.30;68.60;;;24.38;31.74;98061.22;5255344;28;20282;-83
2021/04/01 10:43:05;;;;;;;4.28;3.88;;;23.40;67.90;;;24.34;31.53;98050.75;5257121;28;20194;-83
2021/04/01 10:45:40;;;;;;;7.10;4.10;;;23.40;66.90;;;24.43;32.22;98050.81;5247723;28;20277;-83
2021/04/01 10:48:27;;;;;;;5.07;4.10;;;23.40;67.80;;;24.41;32.51;98049.91;5249504;28;20246;-83
2021/04/01 10:51:03;;;;;;;5.25;3.95;;;23.50;68.90;;;24.46;32.59;98048.22;5252513;28;20204;-85
2021/04/01 10:53:41;;;;;;;4.60;3.60;;;23.60;69.20;;;24.71;32.24;98034.38;5252103;28;20220;-82
2021/04/01 10:56:15;;;;;;;4.88;3.70;;;24.00;68.10;;;24.64;32.38;98039.59;5256735;28;20195;-81
2021/04/01 10:58:53;;;;;;;5.72;3.92;;;23.90;68.00;;;24.70;32.54;98034.41;5256012;28;20315;-81
2021/04/01 11:01:39;;;;;;;4.15;3.72;;;23.80;68.20;;;24.76;31.55;98026.56;5262731;28;20193;-81
2021/04/01 11:04:13;;;;;;;3.95;3.60;;;23.80;67.20;;;24.80;31.72;98023.09;5252937;28;20288;-81
2021/04/01 11:06:46;;;;;;;3.65;3.38;;;23.70;67.10;;;24.85;31.14;98015.25;5260988;28;20644;-83
2021/04/01 11:09:20;;;;;;;5.25;3.45;;;24.00;67.00;;;24.84;31.44;98006.56;5255255;28;20206;-82
2021/04/01 11:12:12;;;;;;;5.25;3.47;;;23.80;67.20;;;24.78;31.76;98014.38;5254588;28;20529;-80
2021/04/01 11:14:49;;;;;;;7.18;4.20;;;23.80;67.70;;;24.85;31.64;98015.25;5252946;28;20310;-80
2021/04/01 11:17:23;;;;;;;5.65;3.80;;;23.90;67.70;;;24.81;31.59;98008.25;5261033;28;20250;-80
2021/04/01 11:19:59;;;;;;;6.35;4.00;;;23.80;67.10;;;24.76;32.57;98008.28;5269805;28;20272;-80
2021/04/01 11:22:31;;;;;;;4.90;3.85;;;23.70;69.00;;;24.83;31.83;97991.72;5270493;28;20922;-80
2021/04/01 11:25:15;;;;;;;4.70;3.92;;;23.80;67.70;;;24.52;32.15;98001.19;5269468;28;20641;-80
2021/04/01 11:27:54;;;;;;;4.32;3.92;;;23.60;68.40;;;24.72;32.32;97988.19;5264294;28;20224;-79
2021/04/01 11:30:42;;;;;;;4.55;3.85;;;23.70;67.70;;;24.78;31.76;97987.34;5255234;28;20365;-80
2021/04/01 11:33:17;;;;;;;4.15;3.60;;;23.80;67.60;;;24.79;32.04;97978.66;5270709;28;20200;-80
2021/04/01 11:36:00;;;;;;;4.15;3.75;;;23.80;67.60;;;24.87;31.75;97974.31;5270146;28;20237;-80
2021/04/01 11:38:40;;;;;;;5.82;4.03;;;23.80;68.00;;;24.95;32.20;97980.41;5268021;28;20298;-81
2021/04/01 11:41:14;;;;;;;5.55;3.53;;;24.00;67.70;;;25.01;32.46;97976.94;5262909;28;20192;-82
2021/04/01 11:43:52;;;;;;;3.88;3.53;;;24.00;68.20;;;25.14;30.47;97974.38;5262617;28;20227;-81
2021/04/01 11:46:28;;;;;;;4.65;3.78;;;24.00;65.40;;;25.02;31.31;97970.84;5260937;28;20205;-83
2021/04/01 11:49:01;;;;;;;4.05;3.72;;;24.00;66.30;;;25.08;31.39;97968.22;5250471;28;20595;-81
2021/04/01 11:51:35;;;;;;;4.03;3.60;;;24.10;66.10;;;25.09;30.50;97978.69;5257874;28;20208;-81
2021/04/01 11:54:11;;;;;;;4.10;3.70;;;24.10;65.80;;;24.98;31.07;97969.97;5268629;28;20584;-81
2021/04/01 11:56:44;;;;;;;5.20;3.72;;;24.00;66.40;;;25.01;31.44;97967.38;5263926;28;20612;-81